sensor_id;sensor_type;location;lat;lon;timestamp;pressure;altitude;pressure_sealevel;temperature
64947;BMP280;51469;52.150;4.682;2024-02-26T00:01:23;100134.19;;;12.84
64947;BMP280;51469;52.150;4.682;2024-02-26T00:03:49;100135.13;;;12.67
64947;BMP280;51469;52.150;4.682;2024-02-26T00:06:14;100140.53;;;12.74
64947;BMP280;51469;52.150;4.682;2024-02-26T00:08:40;100138.34;;;12.58
64947;BMP280;51469;52.150;4.682;2024-02-26T00:11:05;100142.34;;;12.47
64947;BMP280;51469;52.150;4.682;2024-02-26T00:13:30;100130.69;;;12.36
64947;BMP280;51469;52.150;4.682;2024-02-26T00:15:56;100130.56;;;12.50
64947;BMP280;51469;52.150;4.682;2024-02-26T00:18:21;100144.22;;;12.60
64947;BMP280;51469;52.150;4.682;2024-02-26T00:20:46;100151.06;;;12.42
64947;BMP280;51469;52.150;4.682;2024-02-26T00:23:15;100147.19;;;12.36
64947;BMP280;51469;52.150;4.682;2024-02-26T00:25:40;100158.28;;;12.15
64947;BMP280;51469;52.150;4.682;2024-02-26T00:28:08;100159.88;;;12.16
64947;BMP280;51469;52.150;4.682;2024-02-26T00:30:33;100166.78;;;12.34
64947;BMP280;51469;52.150;4.682;2024-02-26T00:32:58;100151.13;;;12.28
64947;BMP280;51469;52.150;4.682;2024-02-26T00:35:24;100149.97;;;12.25
64947;BMP280;51469;52.150;4.682;2024-02-26T00:37:49;100164.19;;;12.17
64947;BMP280;51469;52.150;4.682;2024-02-26T00:40:14;100158.94;;;12.33
64947;BMP280;51469;52.150;4.682;2024-02-26T00:42:40;100161.25;;;12.45
64947;BMP280;51469;52.150;4.682;2024-02-26T00:45:10;100159.28;;;12.45
64947;BMP280;51469;52.150;4.682;2024-02-26T00:47:35;100160.41;;;12.51
64947;BMP280;51469;52.150;4.682;2024-02-26T00:50:01;100164.19;;;12.17
64947;BMP280;51469;52.150;4.682;2024-02-26T00:52:26;100154.50;;;11.91
64947;BMP280;51469;52.150;4.682;2024-02-26T00:54:51;100156.63;;;12.28
64947;BMP280;51469;52.150;4.682;2024-02-26T00:57:17;100160.59;;;12.20
64947;BMP280;51469;52.150;4.682;2024-02-26T00:59:42;100163.88;;;12.01
64947;BMP280;51469;52.150;4.682;2024-02-26T01:02:07;100159.75;;;12.37
64947;BMP280;51469;52.150;4.682;2024-02-26T01:04:33;100163.84;;;12.08
64947;BMP280;51469;52.150;4.682;2024-02-26T01:06:59;100154.44;;;11.98
64947;BMP280;51469;52.150;4.682;2024-02-26T01:09:24;100155.97;;;12.10
64947;BMP280;51469;52.150;4.682;2024-02-26T01:11:50;100172.41;;;12.20
64947;BMP280;51469;52.150;4.682;2024-02-26T01:14:15;100160.84;;;11.81
64947;BMP280;51469;52.150;4.682;2024-02-26T01:16:41;100166.91;;;12.20
64947;BMP280;51469;52.150;4.682;2024-02-26T01:19:06;100162.72;;;11.95
64947;BMP280;51469;52.150;4.682;2024-02-26T01:21:31;100159.47;;;12.14
64947;BMP280;51469;52.150;4.682;2024-02-26T01:23:57;100168.56;;;12.11
64947;BMP280;51469;52.150;4.682;2024-02-26T01:26:22;100166.31;;;12.50
64947;BMP280;51469;52.150;4.682;2024-02-26T01:28:48;100167.06;;;11.89
64947;BMP280;51469;52.150;4.682;2024-02-26T01:31:13;100177.00;;;12.41
64947;BMP280;51469;52.150;4.682;2024-02-26T01:33:38;100177.19;;;12.06
64947;BMP280;51469;52.150;4.682;2024-02-26T01:36:04;100165.81;;;12.07
64947;BMP280;51469;52.150;4.682;2024-02-26T01:38:29;100167.69;;;12.21
64947;BMP280;51469;52.150;4.682;2024-02-26T01:40:55;100168.78;;;11.58
64947;BMP280;51469;52.150;4.682;2024-02-26T01:43:20;100159.13;;;12.08
64947;BMP280;51469;52.150;4.682;2024-02-26T01:45:45;100164.38;;;12.47
64947;BMP280;51469;52.150;4.682;2024-02-26T01:48:11;100160.03;;;11.84
64947;BMP280;51469;52.150;4.682;2024-02-26T01:50:36;100150.03;;;12.11
64947;BMP280;51469;52.150;4.682;2024-02-26T01:53:03;100157.25;;;11.91
64947;BMP280;51469;52.150;4.682;2024-02-26T01:55:29;100161.38;;;11.27
64947;BMP280;51469;52.150;4.682;2024-02-26T01:57:54;100167.09;;;11.82
64947;BMP280;51469;52.150;4.682;2024-02-26T02:00:20;100162.69;;;11.98
64947;BMP280;51469;52.150;4.682;2024-02-26T02:02:47;100166.34;;;11.81
64947;BMP280;51469;52.150;4.682;2024-02-26T02:05:15;100166.94;;;12.17
64947;BMP280;51469;52.150;4.682;2024-02-26T02:07:43;100177.97;;;12.10
64947;BMP280;51469;52.150;4.682;2024-02-26T02:10:08;100177.22;;;11.99
64947;BMP280;51469;52.150;4.682;2024-02-26T02:12:35;100184.66;;;12.05
64947;BMP280;51469;52.150;4.682;2024-02-26T02:15:01;100183.50;;;11.99
64947;BMP280;51469;52.150;4.682;2024-02-26T02:17:27;100192.75;;;12.37
64947;BMP280;51469;52.150;4.682;2024-02-26T02:19:53;100188.63;;;11.97
64947;BMP280;51469;52.150;4.682;2024-02-26T02:22:18;100198.00;;;12.10
64947;BMP280;51469;52.150;4.682;2024-02-26T02:24:45;100189.78;;;12.00
64947;BMP280;51469;52.150;4.682;2024-02-26T02:27:10;100198.25;;;12.37
64947;BMP280;51469;52.150;4.682;2024-02-26T02:29:36;100194.94;;;11.91
64947;BMP280;51469;52.150;4.682;2024-02-26T02:32:02;100195.94;;;12.21
64947;BMP280;51469;52.150;4.682;2024-02-26T02:34:28;100204.72;;;11.99
64947;BMP280;51469;52.150;4.682;2024-02-26T02:36:54;100202.75;;;12.03
64947;BMP280;51469;52.150;4.682;2024-02-26T02:39:20;100208.59;;;12.05
64947;BMP280;51469;52.150;4.682;2024-02-26T02:41:46;100203.00;;;12.26
64947;BMP280;51469;52.150;4.682;2024-02-26T02:44:11;100204.72;;;11.99
64947;BMP280;51469;52.150;4.682;2024-02-26T02:46:37;100204.00;;;11.88
64947;BMP280;51469;52.150;4.682;2024-02-26T02:49:02;100209.31;;;12.23
64947;BMP280;51469;52.150;4.682;2024-02-26T02:51:28;100217.19;;;12.21
64947;BMP280;51469;52.150;4.682;2024-02-26T02:53:53;100215.66;;;12.13
64947;BMP280;51469;52.150;4.682;2024-02-26T02:56:19;100218.03;;;12.07
64947;BMP280;51469;52.150;4.682;2024-02-26T02:58:44;100196.69;;;11.39
64947;BMP280;51469;52.150;4.682;2024-02-26T03:01:09;100220.78;;;12.07
64947;BMP280;51469;52.150;4.682;2024-02-26T03:03:35;100216.22;;;11.73
64947;BMP280;51469;52.150;4.682;2024-02-26T03:06:02;100228.41;;;11.65
64947;BMP280;51469;52.150;4.682;2024-02-26T03:08:27;100224.34;;;12.01
64947;BMP280;51469;52.150;4.682;2024-02-26T03:10:53;100232.19;;;11.99
64947;BMP280;51469;52.150;4.682;2024-02-26T03:13:18;100232.06;;;12.27
64947;BMP280;51469;52.150;4.682;2024-02-26T03:15:43;100239.38;;;12.58
64947;BMP280;51469;52.150;4.682;2024-02-26T03:18:09;100239.81;;;12.46
64947;BMP280;51469;52.150;4.682;2024-02-26T03:20:34;100239.22;;;12.14
64947;BMP280;51469;52.150;4.682;2024-02-26T03:23:00;100246.94;;;12.43
64947;BMP280;51469;52.150;4.682;2024-02-26T03:25:25;100258.59;;;12.61
64947;BMP280;51469;52.150;4.682;2024-02-26T03:27:50;100249.31;;;12.38
64947;BMP280;51469;52.150;4.682;2024-02-26T03:30:16;100251.81;;;12.08
64947;BMP280;51469;52.150;4.682;2024-02-26T03:32:41;100253.34;;;12.19
64947;BMP280;51469;52.150;4.682;2024-02-26T03:35:07;100260.22;;;12.55
64947;BMP280;51469;52.150;4.682;2024-02-26T03:37:33;100261.06;;;12.45
64947;BMP280;51469;52.150;4.682;2024-02-26T03:39:58;100265.03;;;12.34
64947;BMP280;51469;52.150;4.682;2024-02-26T03:42:24;100258.13;;;11.98
64947;BMP280;51469;52.150;4.682;2024-02-26T03:44:49;100251.09;;;11.90
64947;BMP280;51469;52.150;4.682;2024-02-26T03:47:16;100262.41;;;12.06
64947;BMP280;51469;52.150;4.682;2024-02-26T03:49:41;100271.88;;;11.98
64947;BMP280;51469;52.150;4.682;2024-02-26T03:52:06;100270.53;;;12.34
64947;BMP280;51469;52.150;4.682;2024-02-26T03:54:32;100271.38;;;12.31
64947;BMP280;51469;52.150;4.682;2024-02-26T03:56:57;100271.47;;;11.99
64947;BMP280;51469;52.150;4.682;2024-02-26T03:59:22;100274.47;;;12.33
64947;BMP280;51469;52.150;4.682;2024-02-26T04:01:50;100276.72;;;12.59
64947;BMP280;51469;52.150;4.682;2024-02-26T04:04:15;100284.06;;;11.97
64947;BMP280;51469;52.150;4.682;2024-02-26T04:06:45;100280.88;;;12.02
64947;BMP280;51469;52.150;4.682;2024-02-26T04:09:11;100291.34;;;12.35
64947;BMP280;51469;52.150;4.682;2024-02-26T04:11:36;100293.97;;;12.63
64947;BMP280;51469;52.150;4.682;2024-02-26T04:14:02;100299.69;;;12.21
64947;BMP280;51469;52.150;4.682;2024-02-26T04:16:28;100287.56;;;12.01
64947;BMP280;51469;52.150;4.682;2024-02-26T04:18:53;100308.91;;;12.62
64947;BMP280;51469;52.150;4.682;2024-02-26T04:21:19;100310.34;;;12.84
64947;BMP280;51469;52.150;4.682;2024-02-26T04:23:45;100316.69;;;12.74
64947;BMP280;51469;52.150;4.682;2024-02-26T04:26:10;100305.81;;;12.56
64947;BMP280;51469;52.150;4.682;2024-02-26T04:28:36;100312.09;;;12.57
64947;BMP280;51469;52.150;4.682;2024-02-26T04:31:01;100304.50;;;11.89
64947;BMP280;51469;52.150;4.682;2024-02-26T04:33:27;100309.59;;;11.94
64947;BMP280;51469;52.150;4.682;2024-02-26T04:35:52;100315.88;;;11.77
64947;BMP280;51469;52.150;4.682;2024-02-26T04:38:17;100311.50;;;12.11
64947;BMP280;51469;52.150;4.682;2024-02-26T04:40:43;100316.22;;;12.00
64947;BMP280;51469;52.150;4.682;2024-02-26T04:43:08;100315.41;;;12.17
64947;BMP280;51469;52.150;4.682;2024-02-26T04:45:33;100314.72;;;11.64
64947;BMP280;51469;52.150;4.682;2024-02-26T04:47:59;100319.47;;;11.60
64947;BMP280;51469;52.150;4.682;2024-02-26T04:50:25;100319.44;;;11.67
64947;BMP280;51469;52.150;4.682;2024-02-26T04:52:50;100314.72;;;11.64
64947;BMP280;51469;52.150;4.682;2024-02-26T04:55:15;100319.78;;;11.93
64947;BMP280;51469;52.150;4.682;2024-02-26T04:57:41;100327.28;;;11.82
64947;BMP280;51469;52.150;4.682;2024-02-26T05:00:06;100334.31;;;12.01
64947;BMP280;51469;52.150;4.682;2024-02-26T05:02:32;100327.25;;;11.93
64947;BMP280;51469;52.150;4.682;2024-02-26T05:04:58;100340.25;;;11.57
64947;BMP280;51469;52.150;4.682;2024-02-26T05:07:24;100337.91;;;11.70
64947;BMP280;51469;52.150;4.682;2024-02-26T05:09:49;100336.34;;;11.34
64947;BMP280;51469;52.150;4.682;2024-02-26T05:12:15;100337.53;;;11.75
64947;BMP280;51469;52.150;4.682;2024-02-26T05:14:40;100333.56;;;11.83
64947;BMP280;51469;52.150;4.682;2024-02-26T05:17:06;100339.84;;;11.80
64947;BMP280;51469;52.150;4.682;2024-02-26T05:19:31;100345.31;;;12.01
64947;BMP280;51469;52.150;4.682;2024-02-26T05:21:57;100340.59;;;11.98
64947;BMP280;51469;52.150;4.682;2024-02-26T05:24:22;100345.34;;;11.55
64947;BMP280;51469;52.150;4.682;2024-02-26T05:26:48;100348.84;;;11.21
64947;BMP280;51469;52.150;4.682;2024-02-26T05:29:13;100355.53;;;11.20
64947;BMP280;51469;52.150;4.682;2024-02-26T05:31:39;100352.44;;;11.46
64947;BMP280;51469;52.150;4.682;2024-02-26T05:34:04;100351.63;;;11.70
64947;BMP280;51469;52.150;4.682;2024-02-26T05:36:30;100358.66;;;11.99
64947;BMP280;51469;52.150;4.682;2024-02-26T05:39:01;100357.94;;;11.60
64947;BMP280;51469;52.150;4.682;2024-02-26T05:41:26;100364.97;;;11.82
64947;BMP280;51469;52.150;4.682;2024-02-26T05:43:55;100366.56;;;11.76
64947;BMP280;51469;52.150;4.682;2024-02-26T05:46:21;100375.97;;;11.82
64947;BMP280;51469;52.150;4.682;2024-02-26T05:48:48;100373.94;;;12.00
64947;BMP280;51469;52.150;4.682;2024-02-26T05:51:14;100364.56;;;11.87
64947;BMP280;51469;52.150;4.682;2024-02-26T05:53:40;100372.06;;;11.58
64947;BMP280;51469;52.150;4.682;2024-02-26T05:56:06;100388.50;;;11.93
64947;BMP280;51469;52.150;4.682;2024-02-26T05:58:31;100390.03;;;12.05
64947;BMP280;51469;52.150;4.682;2024-02-26T06:00:57;100394.78;;;11.94
64947;BMP280;51469;52.150;4.682;2024-02-26T06:03:22;100390.91;;;11.60
64947;BMP280;51469;52.150;4.682;2024-02-26T06:05:47;100398.28;;;11.21
64947;BMP280;51469;52.150;4.682;2024-02-26T06:08:13;100402.53;;;11.04
64947;BMP280;51469;52.150;4.682;2024-02-26T06:10:39;100408.88;;;11.19
64947;BMP280;51469;52.150;4.682;2024-02-26T06:13:04;100417.56;;;11.38
64947;BMP280;51469;52.150;4.682;2024-02-26T06:15:30;100408.97;;;11.75
64947;BMP280;51469;52.150;4.682;2024-02-26T06:17:55;100415.19;;;12.07
64947;BMP280;51469;52.150;4.682;2024-02-26T06:20:20;100418.38;;;11.60
64947;BMP280;51469;52.150;4.682;2024-02-26T06:22:46;100431.84;;;10.72
64947;BMP280;51469;52.150;4.682;2024-02-26T06:25:11;100424.88;;;10.99
64947;BMP280;51469;52.150;4.682;2024-02-26T06:27:36;100423.41;;;11.30
64947;BMP280;51469;52.150;4.682;2024-02-26T06:30:02;100424.66;;;11.67
64947;BMP280;51469;52.150;4.682;2024-02-26T06:32:27;100419.13;;;11.50
64947;BMP280;51469;52.150;4.682;2024-02-26T06:34:54;100425.03;;;11.94
64947;BMP280;51469;52.150;4.682;2024-02-26T06:37:19;100435.25;;;12.11
64947;BMP280;51469;52.150;4.682;2024-02-26T06:39:45;100448.22;;;11.68
64947;BMP280;51469;52.150;4.682;2024-02-26T06:42:10;100450.13;;;11.54
64947;BMP280;51469;52.150;4.682;2024-02-26T06:44:36;100446.59;;;11.50
64947;BMP280;51469;52.150;4.682;2024-02-26T06:47:01;100455.25;;;11.52
64947;BMP280;51469;52.150;4.682;2024-02-26T06:49:27;100463.13;;;11.88
64947;BMP280;51469;52.150;4.682;2024-02-26T06:51:53;100460.78;;;12.01
64947;BMP280;51469;52.150;4.682;2024-02-26T06:54:19;100468.59;;;12.23
64947;BMP280;51469;52.150;4.682;2024-02-26T06:56:44;100463.53;;;11.80
64947;BMP280;51469;52.150;4.682;2024-02-26T06:59:10;100476.81;;;11.50
64947;BMP280;51469;52.150;4.682;2024-02-26T07:01:35;100476.38;;;11.34
64947;BMP280;51469;52.150;4.682;2024-02-26T07:04:00;100484.25;;;11.39
64947;BMP280;51469;52.150;4.682;2024-02-26T07:06:29;100470.88;;;11.37
64947;BMP280;51469;52.150;4.682;2024-02-26T07:08:54;100495.13;;;11.18
64947;BMP280;51469;52.150;4.682;2024-02-26T07:11:20;100485.41;;;11.31
64947;BMP280;51469;52.150;4.682;2024-02-26T07:13:46;100501.50;;;11.29
64947;BMP280;51469;52.150;4.682;2024-02-26T07:16:12;100507.81;;;11.57
64947;BMP280;51469;52.150;4.682;2024-02-26T07:18:39;100501.88;;;11.34
64947;BMP280;51469;52.150;4.682;2024-02-26T07:21:04;100526.66;;;11.52
64947;BMP280;51469;52.150;4.682;2024-02-26T07:23:31;100518.81;;;11.54
64947;BMP280;51469;52.150;4.682;2024-02-26T07:25:56;100510.06;;;11.27
64947;BMP280;51469;52.150;4.682;2024-02-26T07:28:22;100521.97;;;11.59
64947;BMP280;51469;52.150;4.682;2024-02-26T07:30:47;100527.44;;;11.56
64947;BMP280;51469;52.150;4.682;2024-02-26T07:33:12;100531.44;;;11.79
64947;BMP280;51469;52.150;4.682;2024-02-26T07:35:38;100531.44;;;11.76
64947;BMP280;51469;52.150;4.682;2024-02-26T07:38:04;100550.22;;;11.56
64947;BMP280;51469;52.150;4.682;2024-02-26T07:40:30;100544.50;;;11.04
64947;BMP280;51469;52.150;4.682;2024-02-26T07:42:55;100540.53;;;10.98
64947;BMP280;51469;52.150;4.682;2024-02-26T07:45:21;100535.09;;;11.01
64947;BMP280;51469;52.150;4.682;2024-02-26T07:47:47;100547.66;;;11.06
64947;BMP280;51469;52.150;4.682;2024-02-26T07:50:12;100553.53;;;11.08
64947;BMP280;51469;52.150;4.682;2024-02-26T07:52:38;100567.88;;;10.77
64947;BMP280;51469;52.150;4.682;2024-02-26T07:55:04;100566.19;;;10.62
64947;BMP280;51469;52.150;4.682;2024-02-26T07:57:30;100574.25;;;10.95
64947;BMP280;51469;52.150;4.682;2024-02-26T07:59:55;100575.31;;;10.80
64947;BMP280;51469;52.150;4.682;2024-02-26T08:02:20;100581.69;;;10.94
64947;BMP280;51469;52.150;4.682;2024-02-26T08:04:47;100588.19;;;10.69
64947;BMP280;51469;52.150;4.682;2024-02-26T08:07:12;100584.97;;;10.56
64947;BMP280;51469;52.150;4.682;2024-02-26T08:09:37;100581.03;;;10.54
64947;BMP280;51469;52.150;4.682;2024-02-26T08:12:03;100585.59;;;10.39
64947;BMP280;51469;52.150;4.682;2024-02-26T08:14:28;100590.75;;;10.44
64947;BMP280;51469;52.150;4.682;2024-02-26T08:16:54;100586.13;;;10.55
64947;BMP280;51469;52.150;4.682;2024-02-26T08:19:19;100594.81;;;11.22
64947;BMP280;51469;52.150;4.682;2024-02-26T08:21:44;100591.16;;;11.04
64947;BMP280;51469;52.150;4.682;2024-02-26T08:24:10;100589.06;;;11.51
64947;BMP280;51469;52.150;4.682;2024-02-26T08:26:35;100592.13;;;11.36
64947;BMP280;51469;52.150;4.682;2024-02-26T08:29:01;100591.72;;;11.30
64947;BMP280;51469;52.150;4.682;2024-02-26T08:31:26;100607.31;;;11.16
64947;BMP280;51469;52.150;4.682;2024-02-26T08:33:52;100611.34;;;11.36
64947;BMP280;51469;52.150;4.682;2024-02-26T08:36:18;100606.34;;;11.59
64947;BMP280;51469;52.150;4.682;2024-02-26T08:38:43;100606.28;;;10.77
64947;BMP280;51469;52.150;4.682;2024-02-26T08:41:09;100610.41;;;11.11
64947;BMP280;51469;52.150;4.682;2024-02-26T08:43:34;100605.97;;;11.53
64947;BMP280;51469;52.150;4.682;2024-02-26T08:45:59;100599.81;;;12.12
64947;BMP280;51469;52.150;4.682;2024-02-26T08:48:25;100623.22;;;11.54
64947;BMP280;51469;52.150;4.682;2024-02-26T08:50:50;100624.03;;;11.65
64947;BMP280;51469;52.150;4.682;2024-02-26T08:53:16;100619.47;;;12.25
64947;BMP280;51469;52.150;4.682;2024-02-26T08:55:41;100629.16;;;11.66
64947;BMP280;51469;52.150;4.682;2024-02-26T08:58:07;100625.22;;;11.67
64947;BMP280;51469;52.150;4.682;2024-02-26T09:00:32;100627.94;;;11.57
64947;BMP280;51469;52.150;4.682;2024-02-26T09:02:57;100642.47;;;11.64
64947;BMP280;51469;52.150;4.682;2024-02-26T09:05:23;100632.94;;;11.41
64947;BMP280;51469;52.150;4.682;2024-02-26T09:07:48;100638.97;;;11.71
64947;BMP280;51469;52.150;4.682;2024-02-26T09:10:13;100643.66;;;11.60
64947;BMP280;51469;52.150;4.682;2024-02-26T09:12:39;100646.03;;;11.65
64947;BMP280;51469;52.150;4.682;2024-02-26T09:15:07;100648.72;;;11.58
64947;BMP280;51469;52.150;4.682;2024-02-26T09:17:33;100669.47;;;11.45
64947;BMP280;51469;52.150;4.682;2024-02-26T09:19:58;100674.16;;;11.44
64947;BMP280;51469;52.150;4.682;2024-02-26T09:22:24;100672.34;;;11.73
64947;BMP280;51469;52.150;4.682;2024-02-26T09:24:49;100673.94;;;11.09
64947;BMP280;51469;52.150;4.682;2024-02-26T09:27:16;100672.84;;;11.96
64947;BMP280;51469;52.150;4.682;2024-02-26T09:29:42;100689.91;;;11.51
64947;BMP280;51469;52.150;4.682;2024-02-26T09:32:07;100682.97;;;11.78
64947;BMP280;51469;52.150;4.682;2024-02-26T09:34:33;100680.25;;;11.92
64947;BMP280;51469;52.150;4.682;2024-02-26T09:36:59;100686.78;;;11.56
64947;BMP280;51469;52.150;4.682;2024-02-26T09:39:25;100693.13;;;11.67
64947;BMP280;51469;52.150;4.682;2024-02-26T09:41:50;100695.28;;;11.33
64947;BMP280;51469;52.150;4.682;2024-02-26T09:44:19;100702.13;;;11.57
64947;BMP280;51469;52.150;4.682;2024-02-26T09:46:48;100715.84;;;11.57
64947;BMP280;51469;52.150;4.682;2024-02-26T09:49:15;100715.69;;;11.29
64947;BMP280;51469;52.150;4.682;2024-02-26T09:51:41;100711.25;;;11.82
64947;BMP280;51469;52.150;4.682;2024-02-26T09:54:09;100715.03;;;11.53
64947;BMP280;51469;52.150;4.682;2024-02-26T09:56:39;100731.47;;;11.46
64947;BMP280;51469;52.150;4.682;2024-02-26T09:59:10;100729.47;;;12.11
64947;BMP280;51469;52.150;4.682;2024-02-26T10:01:37;100735.00;;;12.25
64947;BMP280;51469;52.150;4.682;2024-02-26T10:04:04;100746.00;;;12.32
64947;BMP280;51469;52.150;4.682;2024-02-26T10:06:30;100744.97;;;11.72
64947;BMP280;51469;52.150;4.682;2024-02-26T10:08:56;100751.44;;;12.07
64947;BMP280;51469;52.150;4.682;2024-02-26T10:11:23;100750.00;;;12.52
64947;BMP280;51469;52.150;4.682;2024-02-26T10:13:49;100759.41;;;12.54
64947;BMP280;51469;52.150;4.682;2024-02-26T10:16:15;100772.84;;;11.16
64947;BMP280;51469;52.150;4.682;2024-02-26T10:18:52;100750.28;;;11.47
64947;BMP280;51469;52.150;4.682;2024-02-26T10:21:19;100773.34;;;11.90
64947;BMP280;51469;52.150;4.682;2024-02-26T10:23:45;100775.75;;;12.02
64947;BMP280;51469;52.150;4.682;2024-02-26T10:26:11;100767.91;;;12.04
64947;BMP280;51469;52.150;4.682;2024-02-26T10:28:38;100778.13;;;12.07
64947;BMP280;51469;52.150;4.682;2024-02-26T10:31:04;100794.53;;;11.86
64947;BMP280;51469;52.150;4.682;2024-02-26T10:33:29;100787.50;;;11.99
64947;BMP280;51469;52.150;4.682;2024-02-26T10:35:55;100793.13;;;12.23
64947;BMP280;51469;52.150;4.682;2024-02-26T10:38:20;100794.44;;;11.68
64947;BMP280;51469;52.150;4.682;2024-02-26T10:40:48;100805.66;;;12.14
64947;BMP280;51469;52.150;4.682;2024-02-26T10:43:13;100803.34;;;11.55
64947;BMP280;51469;52.150;4.682;2024-02-26T10:45:40;100801.38;;;11.52
64947;BMP280;51469;52.150;4.682;2024-02-26T10:48:13;100805.56;;;11.93
64947;BMP280;51469;52.150;4.682;2024-02-26T10:50:38;100814.28;;;12.12
64947;BMP280;51469;52.150;4.682;2024-02-26T10:53:09;100807.84;;;11.80
64947;BMP280;51469;52.150;4.682;2024-02-26T10:55:38;100826.91;;;11.56
64947;BMP280;51469;52.150;4.682;2024-02-26T10:58:04;100818.44;;;11.75
64947;BMP280;51469;52.150;4.682;2024-02-26T11:00:30;100824.19;;;12.24
64947;BMP280;51469;52.150;4.682;2024-02-26T11:02:56;100824.78;;;11.32
64947;BMP280;51469;52.150;4.682;2024-02-26T11:05:26;100835.66;;;11.72
64947;BMP280;51469;52.150;4.682;2024-02-26T11:07:53;100823.56;;;11.80
64947;BMP280;51469;52.150;4.682;2024-02-26T11:10:19;100841.41;;;12.14
64947;BMP280;51469;52.150;4.682;2024-02-26T11:12:45;100839.63;;;12.60
64947;BMP280;51469;52.150;4.682;2024-02-26T11:15:11;100842.09;;;11.39
64947;BMP280;51469;52.150;4.682;2024-02-26T11:17:37;100848.47;;;11.54
64947;BMP280;51469;52.150;4.682;2024-02-26T11:20:04;100857.53;;;11.58
64947;BMP280;51469;52.150;4.682;2024-02-26T11:22:30;100854.19;;;11.31
64947;BMP280;51469;52.150;4.682;2024-02-26T11:24:56;100869.56;;;11.43
64947;BMP280;51469;52.150;4.682;2024-02-26T11:27:36;100872.56;;;11.24
64947;BMP280;51469;52.150;4.682;2024-02-26T11:30:03;100866.06;;;11.46
64947;BMP280;51469;52.150;4.682;2024-02-26T11:32:30;100861.63;;;11.31
64947;BMP280;51469;52.150;4.682;2024-02-26T11:34:57;100870.53;;;11.61
64947;BMP280;51469;52.150;4.682;2024-02-26T11:37:23;100857.47;;;11.11
64947;BMP280;51469;52.150;4.682;2024-02-26T11:39:51;100882.78;;;11.27
64947;BMP280;51469;52.150;4.682;2024-02-26T11:42:17;100874.88;;;11.22
64947;BMP280;51469;52.150;4.682;2024-02-26T11:44:43;100878.19;;;11.41
64947;BMP280;51469;52.150;4.682;2024-02-26T11:47:14;100883.16;;;11.69
64947;BMP280;51469;52.150;4.682;2024-02-26T11:49:42;100879.97;;;11.67
64947;BMP280;51469;52.150;4.682;2024-02-26T11:52:09;100876.66;;;11.47
64947;BMP280;51469;52.150;4.682;2024-02-26T11:54:50;100872.75;;;11.45
64947;BMP280;51469;52.150;4.682;2024-02-26T11:59:56;100890.72;;;11.39
64947;BMP280;51469;52.150;4.682;2024-02-26T12:05:12;100894.00;;;11.55
64947;BMP280;51469;52.150;4.682;2024-02-26T12:07:49;100887.63;;;11.04
64947;BMP280;51469;52.150;4.682;2024-02-26T12:13:09;100901.34;;;11.87
64947;BMP280;51469;52.150;4.682;2024-02-26T12:15:39;100901.66;;;11.79
64947;BMP280;51469;52.150;4.682;2024-02-26T12:18:07;100895.59;;;11.56
64947;BMP280;51469;52.150;4.682;2024-02-26T12:20:33;100906.69;;;11.70
64947;BMP280;51469;52.150;4.682;2024-02-26T12:22:59;100903.63;;;11.75
64947;BMP280;51469;52.150;4.682;2024-02-26T12:25:26;100920.28;;;11.96
64947;BMP280;51469;52.150;4.682;2024-02-26T12:27:55;100902.59;;;11.46
64947;BMP280;51469;52.150;4.682;2024-02-26T12:30:21;100937.97;;;11.15
64947;BMP280;51469;52.150;4.682;2024-02-26T12:32:48;100930.00;;;11.83
64947;BMP280;51469;52.150;4.682;2024-02-26T12:35:15;100921.41;;;11.48
64947;BMP280;51469;52.150;4.682;2024-02-26T12:37:41;100923.78;;;11.93
64947;BMP280;51469;52.150;4.682;2024-02-26T12:40:10;100917.69;;;11.70
64947;BMP280;51469;52.150;4.682;2024-02-26T12:42:36;100930.59;;;11.22
64947;BMP280;51469;52.150;4.682;2024-02-26T12:45:10;100934.34;;;11.91
64947;BMP280;51469;52.150;4.682;2024-02-26T12:47:37;100932.78;;;11.93
64947;BMP280;51469;52.150;4.682;2024-02-26T12:50:03;100944.03;;;12.25
64947;BMP280;51469;52.150;4.682;2024-02-26T12:52:31;100945.75;;;12.50
64947;BMP280;51469;52.150;4.682;2024-02-26T12:54:57;100926.56;;;12.00
64947;BMP280;51469;52.150;4.682;2024-02-26T12:57:22;100946.34;;;12.23
64947;BMP280;51469;52.150;4.682;2024-02-26T12:59:49;100959.75;;;12.28
64947;BMP280;51469;52.150;4.682;2024-02-26T13:02:14;100958.97;;;12.24
64947;BMP280;51469;52.150;4.682;2024-02-26T13:04:40;100954.75;;;12.44
64947;BMP280;51469;52.150;4.682;2024-02-26T13:07:06;100965.97;;;12.18
64947;BMP280;51469;52.150;4.682;2024-02-26T13:09:34;100963.91;;;12.01
64947;BMP280;51469;52.150;4.682;2024-02-26T13:12:07;100971.16;;;12.30
64947;BMP280;51469;52.150;4.682;2024-02-26T13:14:32;100972.97;;;12.69
64947;BMP280;51469;52.150;4.682;2024-02-26T13:17:00;100974.28;;;13.00
64947;BMP280;51469;52.150;4.682;2024-02-26T13:19:26;100979.81;;;13.14
64947;BMP280;51469;52.150;4.682;2024-02-26T13:21:53;100976.44;;;12.56
64947;BMP280;51469;52.150;4.682;2024-02-26T13:24:19;100987.38;;;11.88
64947;BMP280;51469;52.150;4.682;2024-02-26T13:26:45;100987.56;;;12.84
64947;BMP280;51469;52.150;4.682;2024-02-26T13:29:18;100991.50;;;12.83
64947;BMP280;51469;52.150;4.682;2024-02-26T13:31:43;100990.38;;;12.23
64947;BMP280;51469;52.150;4.682;2024-02-26T13:34:09;100989.22;;;12.92
64947;BMP280;51469;52.150;4.682;2024-02-26T13:36:34;100985.34;;;13.24
64947;BMP280;51469;52.150;4.682;2024-02-26T13:38:59;100993.63;;;13.21
64947;BMP280;51469;52.150;4.682;2024-02-26T13:41:26;100996.91;;;12.62
64947;BMP280;51469;52.150;4.682;2024-02-26T13:43:52;101010.00;;;12.86
64947;BMP280;51469;52.150;4.682;2024-02-26T13:46:17;100999.94;;;12.43
64947;BMP280;51469;52.150;4.682;2024-02-26T13:48:43;101018.22;;;12.72
64947;BMP280;51469;52.150;4.682;2024-02-26T13:51:08;101001.50;;;12.40
64947;BMP280;51469;52.150;4.682;2024-02-26T13:53:34;101006.19;;;12.40
64947;BMP280;51469;52.150;4.682;2024-02-26T13:55:59;101006.00;;;12.12
64947;BMP280;51469;52.150;4.682;2024-02-26T13:58:26;101019.06;;;11.75